createdAt,value
2019-02-06T00:46:13.851Z,36.63
2019-02-06T02:54:39.123Z,33.83
2019-02-06T02:57:16.499Z,33.97
2019-02-06T03:06:07.218Z,30.57
2019-02-06T03:08:47.156Z,33.97
2019-02-06T03:11:27.257Z,30.00
2019-02-06T03:14:07.336Z,30.67
2019-02-06T03:19:46.212Z,29.03
2019-02-06T03:22:26.066Z,28.33
2019-02-06T03:28:18.442Z,29.43
2019-02-06T03:30:57.687Z,32.90
2019-02-06T03:33:37.853Z,27.97
2019-02-06T03:36:05.013Z,24.17
2019-02-06T03:38:51.602Z,31.23
2019-02-06T03:41:38.266Z,27.83
2019-02-06T03:44:26.711Z,32.57
2019-02-06T03:47:13.475Z,28.97
2019-02-06T03:50:00.008Z,30.70
2019-02-06T03:52:46.827Z,26.83
2019-02-06T03:55:33.353Z,28.87
2019-02-06T03:58:20.037Z,30.43
2019-02-06T04:01:06.550Z,30.80
2019-02-06T04:03:53.035Z,26.87
2019-02-06T04:06:39.460Z,25.33
2019-02-06T04:09:26.074Z,29.10
2019-02-06T04:12:12.570Z,27.43
2019-02-06T04:14:59.245Z,30.60
2019-02-06T04:17:45.767Z,27.57
2019-02-06T04:20:25.035Z,26.90
2019-02-06T04:23:05.061Z,29.90
2019-02-06T04:25:45.089Z,27.43
2019-02-06T04:28:25.217Z,28.67
2019-02-06T04:31:05.051Z,31.73
2019-02-06T04:33:44.895Z,29.80
2019-02-06T04:36:25.110Z,29.03
2019-02-06T04:39:05.185Z,29.50
2019-02-06T04:41:45.102Z,28.33
2019-02-06T04:44:25.168Z,27.63
2019-02-06T04:47:05.337Z,29.63
2019-02-06T04:49:45.458Z,29.07
2019-02-06T04:52:25.212Z,26.40
2019-02-06T04:55:05.295Z,25.13
2019-02-06T04:57:45.464Z,28.30
2019-02-06T05:00:25.609Z,25.73
2019-02-06T05:03:05.821Z,28.17
2019-02-06T05:05:45.813Z,24.97
2019-02-06T05:08:25.861Z,23.10
2019-02-06T05:11:06.143Z,28.40
2019-02-06T05:13:53.331Z,27.40
2019-02-06T05:16:39.869Z,24.73
2019-02-06T05:19:19.177Z,24.00
2019-02-06T05:21:59.177Z,28.57
2019-02-06T05:24:39.137Z,26.17
2019-02-06T05:30:17.562Z,26.57
2019-02-06T05:32:57.782Z,24.47
2019-02-06T05:35:37.847Z,28.40
2019-02-06T05:38:17.795Z,26.00
2019-02-06T05:40:57.877Z,23.80
2019-02-06T05:43:37.006Z,29.70
2019-02-06T05:46:17.393Z,26.33
2019-02-06T05:48:57.294Z,25.10
2019-02-06T05:51:37.413Z,28.60
2019-02-06T05:54:17.589Z,26.63
2019-02-06T05:56:56.920Z,31.37
2019-02-06T05:59:36.807Z,26.43
2019-02-06T06:02:17.063Z,27.27
2019-02-06T06:04:56.967Z,25.30
2019-02-06T06:07:45.339Z,26.47
2019-02-06T06:10:18.161Z,25.50
2019-02-06T06:12:58.458Z,25.60
2019-02-06T06:18:50.604Z,27.70
2019-02-06T06:21:30.094Z,26.40
2019-02-06T06:26:52.615Z,28.63
2019-02-06T06:29:39.134Z,29.13
2019-02-06T06:32:25.639Z,26.00
2019-02-06T06:35:12.364Z,24.77
2019-02-06T06:38:02.631Z,26.70
2019-02-06T06:40:47.273Z,29.00
2019-02-06T06:43:33.885Z,27.60
2019-02-06T06:46:20.398Z,26.43
2019-02-06T06:49:06.996Z,26.03
2019-02-06T06:51:53.715Z,27.63
2019-02-06T06:54:40.255Z,28.83
2019-02-06T06:57:26.670Z,27.10
2019-02-06T07:00:14.619Z,21.77
2019-02-06T07:03:01.073Z,24.47
2019-02-06T07:05:47.575Z,22.03
2019-02-06T07:08:34.210Z,26.97
2019-02-06T07:11:20.827Z,22.77
2019-02-06T07:14:09.138Z,22.53
2019-02-06T07:16:55.666Z,26.33
2019-02-06T07:19:35.861Z,25.90
2019-02-06T07:22:16.025Z,25.77
2019-02-06T07:24:55.978Z,22.37
2019-02-06T07:27:36.010Z,26.43
2019-02-06T07:30:16.135Z,25.30
2019-02-06T07:32:55.328Z,24.97
2019-02-06T07:35:35.762Z,27.00
2019-02-06T07:38:23.924Z,23.53
2019-02-06T07:40:57.151Z,25.37
2019-02-06T07:43:37.037Z,22.10
2019-02-06T07:46:17.099Z,24.03
2019-02-06T07:48:57.240Z,20.93
2019-02-06T07:51:37.396Z,22.93
2019-02-06T07:54:17.262Z,22.87
2019-02-06T07:56:57.522Z,25.97
2019-02-06T07:59:37.750Z,22.83
2019-02-06T08:02:17.680Z,23.63
2019-02-06T08:04:56.858Z,22.10
2019-02-06T08:07:36.961Z,21.33
2019-02-06T08:10:17.111Z,23.97
2019-02-06T08:12:56.444Z,21.20
2019-02-06T08:15:36.445Z,25.53
2019-02-06T08:18:16.411Z,22.07
2019-02-06T08:20:55.687Z,21.70
2019-02-06T08:23:22.555Z,22.33
2019-02-06T08:26:09.096Z,21.27
2019-02-06T08:28:57.553Z,24.20
2019-02-06T08:31:44.632Z,21.00
2019-02-06T08:34:31.138Z,21.37
2019-02-06T08:37:17.860Z,23.63
2019-02-06T08:40:05.088Z,23.90
2019-02-06T08:42:51.943Z,24.43
2019-02-06T08:45:40.243Z,26.90
2019-02-06T08:48:28.807Z,22.80
2019-02-06T08:51:15.674Z,21.67
2019-02-06T08:54:02.452Z,21.40
2019-02-06T08:56:49.062Z,24.20
2019-02-06T08:59:16.240Z,21.60
2019-02-06T09:02:02.764Z,22.13
2019-02-06T09:04:55.857Z,24.00
2019-02-06T09:07:38.114Z,20.37
2019-02-06T09:10:26.634Z,21.67
2019-02-06T09:13:13.227Z,23.90
2019-02-06T09:15:59.726Z,23.07
2019-02-06T09:18:46.506Z,22.70
2019-02-06T09:21:25.961Z,20.37
2019-02-06T09:24:05.889Z,19.93
2019-02-06T09:26:45.082Z,21.40
2019-02-06T09:29:24.395Z,19.33
2019-02-06T09:32:04.907Z,22.43
2019-02-06T09:34:45.074Z,23.97
2019-02-06T09:37:12.042Z,21.53
2019-02-06T09:39:58.468Z,20.80
2019-02-06T09:42:44.866Z,22.80
2019-02-06T09:45:31.571Z,20.20
2019-02-06T09:48:18.093Z,21.47
2019-02-06T09:51:04.613Z,20.57
2019-02-06T09:53:51.255Z,21.67
2019-02-06T09:56:18.229Z,21.87
2019-02-06T09:59:04.824Z,20.73
2019-02-06T10:01:51.474Z,22.50
2019-02-06T10:04:37.882Z,19.73
2019-02-06T10:07:04.865Z,21.17
2019-02-06T10:09:31.645Z,18.87
2019-02-06T10:12:18.138Z,19.87
2019-02-06T10:15:05.005Z,19.50
2019-02-06T10:17:52.202Z,18.37
2019-02-06T10:20:33.669Z,19.17
2019-02-06T10:23:13.705Z,22.13
2019-02-06T10:25:53.811Z,20.60
2019-02-06T10:28:34.026Z,20.33
2019-02-06T10:31:14.346Z,20.20
2019-02-06T10:33:54.415Z,19.77
2019-02-06T10:36:34.306Z,20.53
2019-02-06T10:39:01.541Z,18.57
2019-02-06T10:41:47.971Z,19.50
2019-02-06T10:44:15.093Z,19.37
2019-02-06T10:47:01.759Z,17.67
2019-02-06T10:49:48.599Z,19.90
2019-02-06T10:52:35.002Z,20.90
2019-02-06T10:55:21.766Z,19.90
2019-02-06T10:58:08.287Z,19.40
2019-02-06T11:00:57.907Z,18.47
2019-02-06T11:03:44.433Z,18.83
2019-02-06T11:06:30.844Z,16.03
2019-02-06T11:09:17.460Z,18.17
2019-02-06T11:12:04.087Z,18.57
2019-02-06T11:14:50.616Z,20.07
2019-02-06T11:17:37.363Z,19.87
2019-02-06T11:20:17.242Z,18.60
2019-02-06T11:22:57.457Z,18.60
2019-02-06T11:25:37.810Z,18.83
2019-02-06T11:28:17.839Z,18.73
2019-02-06T11:30:57.715Z,17.77
2019-02-06T11:33:37.735Z,17.93
2019-02-06T11:39:22.778Z,17.90
2019-02-06T11:42:02.329Z,20.73
2019-02-06T11:44:42.506Z,20.30
2019-02-06T11:47:22.482Z,21.27
2019-02-06T11:50:04.578Z,19.33
2019-02-06T11:52:44.023Z,18.13
2019-02-06T11:55:23.562Z,26.43
2019-02-06T11:58:03.468Z,19.17
2019-02-06T12:00:48.514Z,21.97
2019-02-06T12:03:28.492Z,21.17
2019-02-06T12:06:08.398Z,21.97
2019-02-06T12:08:48.490Z,20.70
2019-02-06T12:11:28.443Z,23.13
2019-02-06T12:14:08.650Z,19.70
2019-02-06T12:16:48.767Z,27.57
2019-02-06T12:19:28.985Z,23.40
2019-02-06T12:22:08.854Z,22.13
2019-02-06T12:24:48.922Z,21.93
2019-02-06T12:27:29.008Z,19.77
2019-02-06T12:30:09.172Z,19.67
2019-02-06T12:32:52.174Z,22.70
2019-02-06T12:35:29.945Z,22.97
2019-02-06T12:38:10.134Z,19.10
2019-02-06T12:40:50.218Z,21.30
2019-02-06T12:43:30.094Z,20.90
2019-02-06T12:46:09.974Z,22.30
2019-02-06T12:48:50.132Z,17.97
2019-02-06T12:51:30.130Z,19.07
2019-02-06T12:54:09.990Z,19.67
2019-02-06T12:56:49.878Z,20.50
2019-02-06T12:59:29.899Z,20.27
2019-02-06T13:02:09.937Z,19.07
2019-02-06T13:04:50.077Z,19.57
2019-02-06T13:07:17.452Z,19.83
2019-02-06T13:10:05.925Z,21.97
2019-02-06T13:12:54.982Z,24.10
2019-02-06T13:15:41.474Z,19.07
2019-02-06T13:18:27.995Z,22.03
2019-02-06T13:21:07.882Z,19.93
2019-02-06T13:23:49.578Z,21.63
2019-02-06T13:26:29.580Z,22.63
2019-02-06T13:29:09.737Z,21.23
2019-02-06T13:31:49.773Z,23.83
2019-02-06T13:34:29.966Z,21.37
2019-02-06T13:37:09.870Z,24.00
2019-02-06T13:39:49.952Z,21.00
2019-02-06T13:42:29.979Z,20.83
2019-02-06T13:45:09.923Z,23.00
2019-02-06T13:47:49.975Z,20.30
2019-02-06T13:50:29.918Z,22.00
2019-02-06T13:53:10.246Z,21.97
2019-02-06T14:05:01.191Z,24.80
2019-02-06T14:11:00.187Z,27.40
2019-02-06T14:13:35.345Z,28.92
2019-02-06T14:16:15.322Z,26.77
2019-02-06T14:21:54.109Z,28.23
2019-02-06T14:24:33.554Z,29.18
2019-02-06T14:27:13.675Z,28.62
2019-02-06T14:29:54.063Z,30.77
2019-02-06T14:32:33.836Z,27.65
2019-02-06T14:35:13.718Z,27.50
2019-02-06T14:38:05.319Z,26.68
2019-02-06T14:40:45.796Z,26.85
2019-02-06T14:43:25.040Z,28.73
2019-02-06T14:46:04.302Z,29.15
2019-02-06T14:48:43.767Z,25.72
2019-02-06T14:51:23.713Z,27.15
2019-02-06T14:54:03.927Z,29.05
2019-02-06T14:56:43.799Z,27.00
2019-02-06T14:59:23.775Z,27.55
2019-02-06T15:02:03.001Z,29.92
2019-02-06T15:04:43.290Z,28.85
2019-02-06T15:07:23.251Z,27.85
2019-02-06T15:19:00.804Z,25.52
2019-02-06T15:21:40.837Z,26.35
2019-02-06T15:30:34.140Z,24.57
2019-02-06T15:33:14.400Z,25.97
2019-02-06T15:35:54.539Z,23.43
2019-02-06T15:38:34.198Z,25.63
2019-02-06T15:41:14.305Z,25.37
2019-02-06T15:43:54.610Z,23.63
2019-02-06T15:46:37.783Z,22.57
2019-02-06T15:49:19.787Z,25.77
2019-02-06T15:55:00.620Z,23.37
2019-02-06T16:00:42.162Z,25.13
2019-02-06T16:03:23.488Z,26.73
2019-02-06T16:06:07.530Z,24.73
2019-02-06T16:08:47.166Z,23.87
2019-02-06T16:11:27.365Z,25.10
2019-02-06T16:14:07.296Z,26.47
2019-02-06T16:16:47.573Z,26.27
2019-02-06T16:19:27.766Z,27.73
2019-02-06T16:22:06.943Z,30.23
2019-02-06T16:24:47.384Z,30.70
2019-02-06T16:27:27.364Z,30.30
2019-02-06T16:30:07.491Z,31.03
2019-02-06T16:32:47.590Z,29.33
2019-02-06T16:35:27.603Z,30.37
2019-02-06T16:38:07.766Z,29.30
2019-02-06T16:40:47.767Z,31.00
2019-02-06T16:43:28.054Z,32.00
2019-02-06T16:46:08.002Z,30.67
2019-02-06T16:51:46.543Z,30.23
2019-02-06T16:54:25.852Z,32.07
2019-02-06T16:57:05.979Z,33.67
2019-02-06T16:59:45.875Z,33.73
2019-02-06T17:02:25.883Z,32.77
2019-02-06T17:05:05.943Z,32.73
2019-02-06T17:10:57.472Z,34.03
2019-02-06T17:13:37.599Z,28.90
2019-02-06T17:16:17.882Z,33.90
2019-02-06T17:18:57.673Z,30.17
2019-02-06T17:21:37.626Z,32.77
2019-02-06T17:24:17.732Z,31.77
2019-02-06T17:26:57.775Z,32.33
2019-02-06T17:29:37.654Z,32.07
2019-02-06T17:32:17.534Z,28.73
2019-02-06T17:34:57.660Z,33.73
2019-02-06T17:37:37.876Z,32.73
2019-02-06T17:40:17.923Z,33.13
2019-02-06T17:42:57.951Z,32.13
2019-02-06T17:45:38.065Z,32.20
2019-02-06T17:48:18.516Z,30.30
2019-02-06T17:50:58.274Z,31.10
2019-02-06T17:53:38.241Z,30.37
2019-02-06T17:56:18.271Z,31.07
2019-02-06T17:58:58.246Z,30.43
2019-02-06T18:01:38.777Z,28.27
2019-02-06T18:04:18.341Z,29.70
2019-02-06T18:06:58.545Z,25.07
2019-02-06T18:09:38.394Z,30.77
2019-02-06T18:12:26.114Z,29.33
2019-02-06T18:15:00.678Z,32.63
2019-02-06T18:17:40.438Z,31.07
2019-02-06T18:20:20.574Z,29.40
2019-02-06T18:23:00.650Z,31.63
2019-02-06T18:28:39.266Z,32.70
2019-02-06T18:31:19.091Z,29.83
2019-02-06T19:07:19.847Z,26.40
2019-02-06T19:10:00.229Z,29.47
2019-02-06T19:12:47.829Z,27.47
2019-02-06T19:15:21.822Z,28.73
2019-02-06T20:50:40.301Z,26.03
2019-02-06T20:53:19.102Z,23.10
2019-02-06T21:11:12.066Z,30.77
2019-02-06T21:16:53.751Z,30.80
2019-02-06T21:19:33.654Z,27.93
2019-02-06T21:22:13.810Z,32.13
2019-02-06T21:24:53.129Z,29.93
2019-02-06T21:30:46.975Z,29.63
2019-02-06T21:33:26.608Z,34.00
2019-02-06T21:36:06.834Z,39.10
2019-02-06T21:38:46.992Z,36.00
2019-02-06T21:41:27.198Z,36.90
2019-02-06T21:44:07.509Z,32.50
2019-02-06T21:46:47.742Z,31.60
2019-02-06T21:49:28.021Z,36.00
2019-02-06T21:52:07.915Z,33.27
2019-02-06T21:54:48.070Z,29.90
2019-02-06T21:57:14.991Z,30.37
2019-02-06T22:00:01.629Z,30.33
2019-02-06T22:02:48.154Z,28.17
2019-02-06T22:05:15.163Z,27.47
2019-02-06T22:08:01.964Z,28.33
2019-02-06T22:10:49.030Z,30.70
2019-02-06T22:13:35.693Z,32.90
2019-02-06T22:16:22.241Z,29.57
2019-02-06T22:19:08.794Z,37.03
2019-02-06T22:21:57.313Z,30.30
2019-02-06T22:24:44.423Z,33.97
2019-02-06T22:27:30.829Z,32.47
2019-02-06T22:30:37.190Z,32.60
2019-02-06T22:33:25.206Z,29.40
2019-02-06T22:35:52.135Z,30.30
2019-02-06T22:38:39.296Z,31.43
2019-02-06T22:41:27.676Z,29.77
2019-02-06T22:44:14.106Z,28.07
2019-02-06T22:47:00.918Z,26.83
2019-02-06T22:49:47.398Z,27.33
2019-02-06T22:52:34.088Z,25.97
2019-02-06T22:55:20.595Z,29.00
2019-02-06T22:58:07.149Z,28.50
2019-02-06T23:01:13.463Z,28.63
2019-02-06T23:03:59.962Z,27.60
2019-02-06T23:06:46.717Z,22.73
2019-02-06T23:09:33.736Z,27.50
2019-02-06T23:12:20.236Z,24.80
2019-02-06T23:15:06.886Z,25.37
2019-02-06T23:17:53.392Z,25.97
2019-02-06T23:20:33.539Z,26.57
2019-02-06T23:23:13.610Z,28.43
2019-02-06T23:25:53.549Z,27.23
2019-02-06T23:28:33.335Z,30.43
2019-02-06T23:31:00.539Z,26.37
2019-02-06T23:33:47.049Z,31.53
2019-02-06T23:36:33.778Z,30.07
2019-02-06T23:39:20.515Z,25.80
2019-02-06T23:42:07.046Z,27.10
2019-02-06T23:44:53.560Z,30.60
2019-02-06T23:47:40.162Z,26.50
2019-02-06T23:50:26.670Z,27.20
2019-02-06T23:53:13.193Z,27.93
2019-02-06T23:56:00.093Z,29.13
2019-02-06T23:58:46.637Z,25.50
